WAPP/AMQ METAR and TAF weather

Enter ICAO airport designator
Station Type Date Time Source
WAPP METAR 2019/02/20 17:00 UTC NOAA

WAPP 201700Z VRB04KT 9999 FEW020 24/23 Q1013 NOSIG


Station Type Date Time Source
WAPP Decoded METAR 2019/02/20 17:00 UTC NOAA

Ambon / Pattimura, Indonesia (WAPP) 03-42S 128-05E 12M
Feb 20, 2019 - 12:00 PM EST / 2019.02.20 1700 UTC
Wind: Variable at 5 MPH (4 KT):0
Visibility: greater than 7 mile(s):0
Sky conditions: mostly clear
Temperature: 75 F (24 C)
Dew Point: 73 F (23 C)
Relative Humidity: 94%
Pressure (altimeter): 29.91 in. Hg (1013 hPa)
ob: WAPP 201700Z VRB04KT 9999 FEW020 24/23 Q1013 NOSIG
cycle: 17

Station Type Date Time Source
WAPP TAF 2015/06/30 00:57 UTC NOAA

TAF WAPP 302300Z 0100/0124 34006KT 9999 SCT018
TEMPO 0101/0104 7000 -RA BKN017
BECMG 0105/0107 21006KT
BECMG 0109/0111 32006KT


Example: see airport list